Terminal Aerodrome Forecast
Issued by NWS Memphis, TN

Home | Current Version | Previous Version | Text Only | Print | Product List | Glossary On
Versions: 1 2 3 4 5 6 7 8 9 10 11 12 13 14 15 16 17
035
FTUS44 KMEG 251730 CCA
TAFMKL
TAF COR
KMKL 251730Z 2518/2618 15013G20KT P6SM VCSH BKN035 OVC080
     FM252000 19013G20KT P6SM VCTS SCT035CB BKN100 BKN250
      TEMPO 2520/2524 5SM SHRA BKN035
     FM260000 20007KT P6SM VCSH BKN040 BKN090
     FM260400 21004KT P6SM BKN090
     FM261600 19009KT P6SM SCT120 BKN250=

USA.gov is the U.S. government's official web portal to all federal, state and local government web resources and services.